CW8033 Weather Reports


Display with metric or nautical units.
time (UTC)temp
F
wind
direction
speed
MPH
gust
MPH
rain 1hr
in
rain 24hr
in
rain mn
in
humidity
%
barometer
mb
20221005124931 67 234 7.0 14.0 0.00 0.00 0.00 72 1017.3
20221005124431 67 227 5.0 11.0 0.00 0.00 0.00 71 1017.4
20221005123931 67 181 3.0 9.0 0.00 0.00 0.00 77 1017.4
20221005123429 67 240 3.0 8.0 0.00 0.00 0.00 78 1017.5
20221005123233 66 202 4.0 8.0 0.00 0.00 0.00 80 1017.8
20221005122430 65 231 5.0 11.0 0.00 0.00 0.00 78 1017.8
20221005121929 66 186 6.0 12.0 0.00 0.00 0.00 79 1017.9
20221005121429 65 169 5.0 12.0 0.00 0.00 0.00 79 1017.9
20221005120930 64 204 3.0 8.0 0.00 0.00 0.00 83 1018.1
20221005120439 64 223 4.0 8.0 0.00 0.00 0.00 82 1018.1
20221005115930 63 174 4.0 8.0 0.00 0.00 0.00 83 1018.3
20221005115734 63 219 4.0 8.0 0.00 0.00 0.00 84 1018.4
20221005114929 62 186 4.0 8.0 0.00 0.00 0.00 85 1018.4
20221005114431 60 190 4.0 7.0 0.00 0.00 0.00 86 1018.4
20221005114041 61 176 5.0 9.0 0.00 0.00 0.00 87 1018.5
20221005114017 61 237 4.0 8.0 0.00 0.00 0.00 85 1018.5
20221005112928 60 236 6.0 10.0 0.00 0.00 0.00 87 1018.5
20221005112431 59 243 5.0 10.0 0.00 0.00 0.00 89 1018.6
20221005111930 59 230 5.0 11.0 0.00 0.00 0.00 89 1018.6
20221005111430 58 199 5.0 11.0 0.00 0.00 0.00 90 1018.7
20221005110930 57 192 5.0 10.0 0.00 0.00 0.00 92 1018.8
20221005110433 57 148 4.0 7.0 0.00 0.00 0.00 92 1018.8
20221005105931 57 197 3.0 7.0 0.00 0.00 0.00 93 1018.8
20221005105432 56 227 4.0 7.0 0.00 0.00 0.00 93 1018.9
20221005104929 56 230 4.0 8.0 0.00 0.00 0.00 93 1018.9
20221005104430 57 186 4.0 9.0 0.00 0.00 0.00 94 1018.9
20221005104229 56 202 4.0 9.0 0.00 0.00 0.00 95 1018.9
20221005103429 56 248 4.0 7.0 0.00 0.00 0.00 94 1019.0
20221005102928 56 208 3.0 7.0 0.00 0.00 0.00 95 1019.0
20221005102429 55 236 3.0 7.0 0.00 0.00 0.00 95 1019.1
20221005102230 55 191 4.0 7.0 0.00 0.00 0.00 96 1019.1
20221005101429 55 234 5.0 7.0 0.00 0.00 0.00 96 1019.0
20221005100928 55 190 5.0 10.0 0.00 0.00 0.00 96 1019.1
20221005100430 55 217 4.0 10.0 0.00 0.00 0.00 96 1019.1
20221004201402 48 189 0.0 1.0 0.00 0.01 0.01 92 1020.0
20221004201155 48 189 0.0 1.0 0.00 0.01 0.01 92 1019.9
20221004195614 48 189 0.0 1.0 0.00 0.01 0.01 92 1019.9
20221004194147 49 189 1.0 2.0 0.00 0.01 0.01 91 1019.8
20221004193402 49 189 1.0 2.0 0.00 0.01 0.01 91 1019.8
20221004192901 49 189 1.0 2.0 0.00 0.01 0.01 91 1019.6
20221004192656 49 189 1.0 2.0 0.00 0.01 0.01 91 1019.6
20221004191902 49 189 0.0 2.0 0.00 0.01 0.01 91 1019.6
20221004191403 49 189 0.0 2.0 0.00 0.01 0.01 91 1019.6
20221004190902 50 189 1.0 2.0 0.00 0.01 0.01 91 1019.5
20221004190401 50 189 1.0 2.0 0.00 0.01 0.01 91 1019.5
20221004185902 50 188 0.0 2.0 0.00 0.01 0.01 90 1019.5
20221004185400 50 188 0.0 2.0 0.00 0.01 0.01 89 1019.4
20221004185154 50 189 0.0 0.0 0.00 0.01 0.01 89 1019.4
20221004184402 51 189 0.0 0.0 0.00 0.01 0.01 89 1019.4
20221004183901 51 189 0.0 1.0 0.00 0.01 0.01 89 1019.4
20221004183402 51 189 0.0 1.0 0.00 0.01 0.01 88 1019.3
20221004182903 51 189 0.0 1.0 0.00 0.01 0.01 88 1019.2
20221004182357 52 189 0.0 0.0 0.00 0.01 0.01 88 1019.3
20221004181852 52 189 0.0 1.0 0.00 0.01 0.01 87 1019.3
20221004181342 52 189 0.0 1.0 0.00 0.01 0.01 87 1019.2
20221004181138 53 189 0.0 1.0 0.00 0.01 0.01 86 1019.3
20221004180745 53 189 0.0 0.0 0.00 0.01 0.01 86 1019.3
20221004180739 53 189 0.0 0.0 0.00 0.01 0.01 87 1019.2
20221004175340 53 189 0.0 0.0 0.00 0.01 0.01 86 1019.2
20221004174837 54 189 0.0 0.0 0.00 0.01 0.01 84 1019.2
20221004174337 55 189 0.0 0.0 0.00 0.01 0.01 82 1019.1
20221004173836 55 189 0.0 0.0 0.00 0.01 0.01 82 1019.0
20221004173337 55 189 0.0 0.0 0.00 0.01 0.01 80 1019.0
20221004172836 56 189 0.0 0.0 0.00 0.01 0.01 79 1019.0
20221004162329 65 190 2.0 6.0 0.00 0.01 0.01 63 1018.2
20221004162130 66 193 3.0 6.0 0.00 0.01 0.01 62 1018.2
20221004161330 67 182 2.0 4.0 0.00 0.01 0.01 62 1018.2
20221004161131 67 191 3.0 5.0 0.00 0.01 0.01 63 1018.2
20221004160638 67 195 3.0 6.0 0.00 0.01 0.01 60 1018.3
20221004155829 67 192 3.0 6.0 0.00 0.01 0.01 61 1018.3
20221004155629 67 198 3.0 6.0 0.00 0.01 0.01 62 1018.4
20221004154830 67 198 4.0 7.0 0.00 0.01 0.01 60 1018.5
20221004154331 67 173 4.0 7.0 0.00 0.01 0.01 62 1018.5
20221004153831 67 230 4.0 6.0 0.00 0.01 0.01 59 1018.5
20221004153330 68 193 4.0 6.0 0.00 0.01 0.01 61 1018.6
20221004152830 68 204 4.0 6.0 0.00 0.01 0.01 60 1018.6
20221004152329 69 192 3.0 7.0 0.00 0.01 0.01 60 1018.6
20221004152244 69 183 3.0 5.0 0.00 0.01 0.01 57 1018.6
20221004152239 69 195 3.0 7.0 0.00 0.01 0.01 57 1018.6
20221004150828 69 211 4.0 7.0 0.00 0.01 0.01 56 1018.7
20221004150650 70 170 4.0 7.0 0.00 0.01 0.01 57 1018.8
20221004145830 69 195 3.0 7.0 0.00 0.01 0.01 56 1018.8
20221004145330 69 169 4.0 7.0 0.00 0.01 0.01 56 1018.8
20221004144830 69 189 4.0 8.0 0.00 0.01 0.01 58 1018.6
20221004144329 68 213 5.0 9.0 0.00 0.01 0.01 58 1018.6
20221004143829 69 199 5.0 9.0 0.00 0.01 0.01 59 1018.6
20221004143329 69 221 3.0 7.0 0.00 0.01 0.01 59 1018.6
20221004142831 69 155 3.0 6.0 0.00 0.01 0.01 59 1018.7
20221004142637 69 139 3.0 6.0 0.00 0.01 0.01 58 1018.8
20221004141829 68 214 4.0 8.0 0.00 0.01 0.01 62 1018.9
20221004141330 67 202 4.0 8.0 0.00 0.01 0.01 60 1019.0
20221004140828 69 228 3.0 8.0 0.00 0.01 0.01 61 1019.0
20221004140330 69 173 3.0 6.0 0.00 0.01 0.01 63 1019.0
20221004135832 67 207 3.0 6.0 0.00 0.01 0.01 61 1019.1
20221004135329 67 212 3.0 7.0 0.00 0.01 0.01 63 1019.0
20221004134831 67 194 4.0 8.0 0.00 0.01 0.01 60 1019.1
20221004134329 68 175 4.0 8.0 0.00 0.01 0.01 61 1019.1
20221004133829 66 205 4.0 7.0 0.00 0.01 0.01 66 1019.1
20221004133328 66 213 4.0 8.0 0.00 0.01 0.01 63 1019.2
20221004133128 67 203 3.0 8.0 0.00 0.01 0.01 61 1019.3
20221004132328 67 124 3.0 6.0 0.00 0.01 0.01 62 1019.2
20221004131831 66 218 3.0 6.0 0.00 0.01 0.01 65 1019.2
20221004131330 67 214 3.0 6.0 0.00 0.01 0.01 63 1019.3
20221004130832 67 175 3.0 5.0 0.00 0.01 0.01 65 1019.4
20221004130629 68 209 3.0 5.0 0.00 0.01 0.01 64 1019.4
20221004125829 67 139 2.0 6.0 0.00 0.01 0.01 64 1019.5
20221004125330 67 190 3.0 6.0 0.00 0.01 0.01 63 1019.5